»·PEaware :: N716CB KTRK-KMMH

N716CB :: KTRK-KMMH

FLIGHT INFORMATION

Flight Status: Arrived
Operator: Privately registered:
United States
More flights under this callsign
Pilot: Alex C. (14758)
Aircraft: BOMBARDIER BD-100 CHALLENGER 300
(CL30)
More flights by this aircraft type
Origin: KTRK Truckee-Tahoe
United States
Destination: KMMH Mammoth Yosemite
United States
More flights between these airports :: More routes between these airports
Route: TRUCK4 TRUCK SWR NIKOL
File this flight plan on PilotEdge
Remarks:
Altitude:
(Current/Filed)
25,000ft
Speed:
(Current/Filed)
400kts
Departed: 02-Nov-18 09:15 PM
Arrived: 02-Nov-18 09:49 PM
Distance/Time
Traveled:
118nm/0:34
Distance/Time
To Go:
Arrived

Flight Plot

Page will automatically refresh every two minutes.

Flight plan parsing failed; only flown route is shown


Map Options




Map Legend


Flown Route
Filed Route
Departure Airport
Arrival Airport
Navaid (VOR, NDB)
Fix

Horizontal Profiles

Position Reports

Time Latitude Longitude Heading Altitude Ground
Speed
02-Nov-18 21:12 39.314942 -120.140407 170 5906ft 0kts
02-Nov-18 21:13 39.314942 -120.140407 170 5906ft 0kts
02-Nov-18 21:14 39.314942 -120.140407 170 5906ft 0kts
02-Nov-18 21:15 39.314942 -120.140407 170 5906ft 0kts
02-Nov-18 21:16 39.314941 -120.139608 30 5906ft 16kts
02-Nov-18 21:17 39.341164 -120.119032 29 6633ft 219kts
02-Nov-18 21:18 39.395306 -120.159932 326 10577ft 292kts
02-Nov-18 21:19 39.395012 -120.256334 222 14024ft 359kts
02-Nov-18 21:20 39.309776 -120.264133 170 17666ft 378kts
02-Nov-18 21:21 39.210625 -120.261779 162 20881ft 398kts
02-Nov-18 21:22 39.123339 -120.181504 137 23801ft 411kts
02-Nov-18 21:23 39.044333 -120.087079 133 24325ft 436kts
02-Nov-18 21:24 38.975990 -119.996353 133 22842ft 420kts
02-Nov-18 21:25 38.918148 -119.919543 133 22801ft 418kts
02-Nov-18 21:26 38.845450 -119.823208 133 22998ft 421kts
02-Nov-18 21:27 38.769792 -119.723257 133 22999ft 421kts
02-Nov-18 21:28 38.706163 -119.639442 132 24201ft 429kts
02-Nov-18 21:29 38.627116 -119.535615 133 25000ft 434kts
02-Nov-18 21:30 38.549966 -119.434616 133 25001ft 433kts
02-Nov-18 21:31 38.480088 -119.343431 133 24713ft 390kts
02-Nov-18 21:32 38.412449 -119.255442 133 22697ft 380kts
02-Nov-18 21:33 38.346594 -119.169993 133 20990ft 369kts
02-Nov-18 21:34 38.285292 -119.090644 133 19303ft 360kts
02-Nov-18 21:36 38.228171 -119.016901 133 17688ft 351kts
02-Nov-18 21:37 38.167649 -118.938996 133 16018ft 339kts
02-Nov-18 21:38 38.107797 -118.862102 133 16001ft 341kts
02-Nov-18 21:39 38.044925 -118.781539 133 16000ft 343kts
02-Nov-18 21:40 37.983603 -118.703166 133 15877ft 334kts
02-Nov-18 21:41 37.914227 -118.656226 154 14622ft 332kts
02-Nov-18 21:42 37.846303 -118.618208 155 13423ft 326kts
02-Nov-18 21:43 37.777399 -118.580615 155 12992ft 308kts
02-Nov-18 21:44 37.712369 -118.545538 155 12887ft 262kts
02-Nov-18 21:45 37.654743 -118.523225 199 12081ft 238kts
02-Nov-18 21:46 37.633868 -118.575808 258 11111ft 198kts
02-Nov-18 21:47 37.624616 -118.631537 260 9779ft 162kts
02-Nov-18 21:48 37.617490 -118.680945 262 9306ft 167kts
02-Nov-18 21:49 37.617313 -118.730904 275 8557ft 164kts
02-Nov-18 21:50 37.620533 -118.810797 270 7392ft 150kts
02-Nov-18 21:51 37.626051 -118.846278 289 7133ft 67kts
02-Nov-18 21:52 37.627468 -118.848016 111 7133ft 24kts
02-Nov-18 21:53 37.627706 -118.845447 102 7133ft 0kts
02-Nov-18 21:54 37.627706 -118.845447 102 7133ft 0kts
02-Nov-18 21:55 37.627706 -118.845447 102 7133ft 0kts
02-Nov-18 21:56 37.627706 -118.845447 102 7133ft 0kts
02-Nov-18 21:57 37.627706 -118.845447 102 7133ft 0kts
02-Nov-18 21:58 37.627706 -118.845447 102 7133ft 0kts
02-Nov-18 21:59 37.627706 -118.845447 102 7133ft 0kts
02-Nov-18 22:00 37.627706 -118.845447 102 7133ft 0kts
02-Nov-18 22:01 37.627706 -118.845447 102 7133ft 0kts
02-Nov-18 22:02 37.627706 -118.845447 102 7133ft 0kts
02-Nov-18 22:03 37.627706 -118.845447 102 7133ft 0kts
02-Nov-18 22:04 37.627706 -118.845447 102 7133ft 0kts
02-Nov-18 22:05 37.627706 -118.845447 102 7133ft 0kts
02-Nov-18 22:06 37.627706 -118.845447 102 7133ft 0kts
02-Nov-18 22:07 37.627706 -118.845447 102 7133ft 0kts

Navigation Log

Ident Type
Flight plan parsing failed, navigation log unavailable